Airfield :
LOGIN :

Register | Disclaimer

   EN    FR    IT 

 










Legend :    VFR   Marginal VFR   IFR   Intensive IFR   Very Intensive IFR
Visi :
Ceiling :
>= 8 km
>= 3000ft
5 to 8 km
1000 to 3000 ft
1500m to 5 km
500 to 1000 ft
800 to 1500m
200 to 500 ft
< 800m
< 200 ft
Symbols :   Thunderstorms  Fog  Heavy snow  Heavy precipitations  Wind > 20 kt
SIGMETs :     Misc.  Thunderstorms  Icing  Turbulence  Mountain Waves  Volcanic Ashes






- Airport Elevation : 2776 ft
- IATA code : VLL


LEVD - Valladolid

CURRENT METAR :
  • 282230Z AUTO 13003KT CAVOK 03/01 Q1024

EXPIRED METARs :
  • 282200Z AUTO 13005KT CAVOK 03/01 Q1024
  • 282130Z AUTO 11003KT CAVOK 04/01 Q1024
  • 282100Z AUTO 12005KT CAVOK 04/01 Q1024
  • 282030Z 11004KT 080V140 CAVOK 05/01 Q1024
  • 282000Z 12001KT CAVOK 06/02 Q1024
  • 281930Z 08006KT CAVOK 06/02 Q1024
  • 281900Z 10003KT CAVOK 07/01 Q1024
  • 281830Z 10002KT CAVOK 07/02 Q1024
  • 281800Z 08001KT CAVOK 09/02 Q1024

TAF TAF LEVD
Valid from the 28 at 21:00 until the 29 at 21:00 UTC


282000Z 2821/2921 VRB05KT CAVOK TX08/2914Z TNM02/2906Z
PROB30
TEMPO 2901/2906 3000 BR
PROB40
TEMPO 2907/2915 BKN006
BECMG 2909/2911 26012KT
PROB40
TEMPO 2913/2918 30018G28KT RA BKN006



MET'MAP, your aeronautical weather chart ! - Copyright ORBIFLY December 2007 - Disclaimer

ORBIFLY MET'MAP TEAM :

Programming & Development : Alexandra Zaïnal
Original concept : Baudouin d'Aumeries
Technical & hardware support : Manuel Goepfert
Assistance : Marc-Olivier Méhu




SOURCES & CREDITS :

   NOAA